sensor_id;sensor_type;location;lat;lon;timestamp;pressure;altitude;pressure_sealevel;temperature;humidity
61026;BME280;46911;32.650;-16.902;2023-05-03T00:01:08;101123.81;;;20.15;95.22
61026;BME280;46911;32.650;-16.902;2023-05-03T00:03:12;101118.72;;;20.12;95.18
61026;BME280;46911;32.650;-16.902;2023-05-03T00:05:16;101062.31;;;19.81;95.62
61026;BME280;46911;32.650;-16.902;2023-05-03T00:07:23;101095.91;;;19.96;96.06
61026;BME280;46911;32.650;-16.902;2023-05-03T00:09:24;101095.91;;;19.96;95.66
61026;BME280;46911;32.650;-16.902;2023-05-03T00:11:27;101093.13;;;19.88;96.14
61026;BME280;46911;32.650;-16.902;2023-05-03T00:13:28;101111.31;;;19.96;96.95
61026;BME280;46911;32.650;-16.902;2023-05-03T00:15:28;101105.00;;;19.87;97.06
61026;BME280;46911;32.650;-16.902;2023-05-03T00:17:32;101100.63;;;19.76;97.07
61026;BME280;46911;32.650;-16.902;2023-05-03T00:19:35;101079.38;;;19.63;97.33
61026;BME280;46911;32.650;-16.902;2023-05-03T00:21:39;101100.19;;;19.81;97.48
61026;BME280;46911;32.650;-16.902;2023-05-03T00:23:42;101114.78;;;19.88;97.46
61026;BME280;46911;32.650;-16.902;2023-05-03T00:25:45;101111.25;;;19.87;97.64
61026;BME280;46911;32.650;-16.902;2023-05-03T00:27:46;101099.47;;;19.79;97.73
61026;BME280;46911;32.650;-16.902;2023-05-03T00:29:49;101111.41;;;19.86;97.97
61026;BME280;46911;32.650;-16.902;2023-05-03T00:31:52;101109.88;;;19.83;98.30
61026;BME280;46911;32.650;-16.902;2023-05-03T00:33:56;101111.69;;;19.83;98.76
61026;BME280;46911;32.650;-16.902;2023-05-03T00:36:08;101121.53;;;19.84;98.95
61026;BME280;46911;32.650;-16.902;2023-05-03T00:38:09;101111.41;;;19.86;98.28
61026;BME280;46911;32.650;-16.902;2023-05-03T00:40:11;101110.03;;;19.82;98.36
61026;BME280;46911;32.650;-16.902;2023-05-03T00:42:15;101100.41;;;19.87;98.30
61026;BME280;46911;32.650;-16.902;2023-05-03T00:44:19;101092.63;;;19.84;98.64
61026;BME280;46911;32.650;-16.902;2023-05-03T00:46:24;101081.53;;;19.78;98.50
61026;BME280;46911;32.650;-16.902;2023-05-03T00:48:25;101089.22;;;19.82;98.18
61026;BME280;46911;32.650;-16.902;2023-05-03T00:50:27;101079.84;;;19.77;98.08
61026;BME280;46911;32.650;-16.902;2023-05-03T00:52:31;101078.97;;;19.76;97.83
61026;BME280;46911;32.650;-16.902;2023-05-03T00:54:35;101091.47;;;19.87;97.67
61026;BME280;46911;32.650;-16.902;2023-05-03T00:56:40;101097.56;;;19.89;97.49
61026;BME280;46911;32.650;-16.902;2023-05-03T00:58:41;101089.59;;;19.87;97.65
61026;BME280;46911;32.650;-16.902;2023-05-03T01:00:42;101080.94;;;19.84;96.97
61026;BME280;46911;32.650;-16.902;2023-05-03T01:02:43;101073.81;;;19.83;96.69
61026;BME280;46911;32.650;-16.902;2023-05-03T01:04:46;101088.09;;;19.93;96.61
61026;BME280;46911;32.650;-16.902;2023-05-03T01:11:44;101091.97;;;19.90;96.85
61026;BME280;46911;32.650;-16.902;2023-05-03T01:16:48;101069.09;;;19.85;95.76
61026;BME280;46911;32.650;-16.902;2023-05-03T01:18:56;101083.19;;;19.88;94.73
61026;BME280;46911;32.650;-16.902;2023-05-03T01:21:06;101082.31;;;19.88;94.16
61026;BME280;46911;32.650;-16.902;2023-05-03T01:23:18;101078.59;;;19.89;94.10
61026;BME280;46911;32.650;-16.902;2023-05-03T01:25:24;101065.56;;;19.84;93.16
61026;BME280;46911;32.650;-16.902;2023-05-03T01:27:28;101068.78;;;19.88;93.49
61026;BME280;46911;32.650;-16.902;2023-05-03T01:29:29;101076.22;;;19.86;93.67
61026;BME280;46911;32.650;-16.902;2023-05-03T01:31:38;101086.06;;;19.87;93.80
61026;BME280;46911;32.650;-16.902;2023-05-03T01:33:52;101071.00;;;19.74;93.89
61026;BME280;46911;32.650;-16.902;2023-05-03T01:36:03;101069.00;;;19.77;93.41
61026;BME280;46911;32.650;-16.902;2023-05-03T01:38:14;101079.22;;;19.83;93.87
61026;BME280;46911;32.650;-16.902;2023-05-03T01:40:17;101067.84;;;19.79;94.19
61026;BME280;46911;32.650;-16.902;2023-05-03T01:42:19;101054.25;;;19.71;94.38
61026;BME280;46911;32.650;-16.902;2023-05-03T01:44:24;101053.69;;;19.67;93.80
61026;BME280;46911;32.650;-16.902;2023-05-03T01:46:28;101070.72;;;19.78;93.49
61026;BME280;46911;32.650;-16.902;2023-05-03T01:48:29;101049.13;;;19.68;93.54
61026;BME280;46911;32.650;-16.902;2023-05-03T01:50:30;101076.97;;;19.78;93.61
61026;BME280;46911;32.650;-16.902;2023-05-03T01:52:35;101074.41;;;19.77;93.54
61026;BME280;46911;32.650;-16.902;2023-05-03T01:54:38;101070.31;;;19.72;93.46
61026;BME280;46911;32.650;-16.902;2023-05-03T01:56:39;101048.06;;;19.61;93.38
61026;BME280;46911;32.650;-16.902;2023-05-03T01:58:40;101062.19;;;19.72;93.17
61026;BME280;46911;32.650;-16.902;2023-05-03T02:00:44;101050.75;;;19.61;93.12
61026;BME280;46911;32.650;-16.902;2023-05-03T02:02:49;101045.34;;;19.61;92.65
61026;BME280;46911;32.650;-16.902;2023-05-03T02:04:51;101065.53;;;19.66;93.15
61026;BME280;46911;32.650;-16.902;2023-05-03T02:06:55;101042.41;;;19.54;92.65
61026;BME280;46911;32.650;-16.902;2023-05-03T02:08:56;101058.88;;;19.61;93.22
61026;BME280;46911;32.650;-16.902;2023-05-03T02:10:57;101066.28;;;19.58;92.79
61026;BME280;46911;32.650;-16.902;2023-05-03T02:12:58;101066.69;;;19.64;92.30
61026;BME280;46911;32.650;-16.902;2023-05-03T02:15:05;101049.00;;;19.51;92.48
61026;BME280;46911;32.650;-16.902;2023-05-03T02:17:08;101065.84;;;19.63;91.65
61026;BME280;46911;32.650;-16.902;2023-05-03T02:19:14;101042.88;;;19.49;91.63
61026;BME280;46911;32.650;-16.902;2023-05-03T02:21:20;101057.00;;;19.61;91.21
61026;BME280;46911;32.650;-16.902;2023-05-03T02:23:21;101043.56;;;19.51;90.76
61026;BME280;46911;32.650;-16.902;2023-05-03T02:25:30;101048.91;;;19.43;90.86
61026;BME280;46911;32.650;-16.902;2023-05-03T02:27:31;101063.19;;;19.53;90.93
61026;BME280;46911;32.650;-16.902;2023-05-03T02:29:35;101059.81;;;19.51;90.72
61026;BME280;46911;32.650;-16.902;2023-05-03T02:31:41;101059.31;;;19.56;90.52
61026;BME280;46911;32.650;-16.902;2023-05-03T02:33:42;101055.41;;;19.50;90.10
61026;BME280;46911;32.650;-16.902;2023-05-03T02:35:43;101056.16;;;19.43;90.57
61026;BME280;46911;32.650;-16.902;2023-05-03T02:37:44;101045.97;;;19.36;89.84
61026;BME280;46911;32.650;-16.902;2023-05-03T02:39:46;101047.56;;;19.29;89.02
61026;BME280;46911;32.650;-16.902;2023-05-03T02:41:50;101055.09;;;19.35;88.28
61026;BME280;46911;32.650;-16.902;2023-05-03T02:43:51;101029.13;;;19.24;85.90
61026;BME280;46911;32.650;-16.902;2023-05-03T02:45:54;101023.22;;;19.29;83.44
61026;BME280;46911;32.650;-16.902;2023-05-03T02:47:59;101041.97;;;19.40;82.75
61026;BME280;46911;32.650;-16.902;2023-05-03T02:50:05;101038.53;;;19.38;82.18
61026;BME280;46911;32.650;-16.902;2023-05-03T02:52:12;101043.03;;;19.48;80.88
61026;BME280;46911;32.650;-16.902;2023-05-03T02:54:13;101039.47;;;19.47;80.00
61026;BME280;46911;32.650;-16.902;2023-05-03T02:56:17;101035.06;;;19.46;79.78
61026;BME280;46911;32.650;-16.902;2023-05-03T02:58:18;101017.53;;;19.32;79.06
61026;BME280;46911;32.650;-16.902;2023-05-03T03:00:20;101014.75;;;19.42;78.53
61026;BME280;46911;32.650;-16.902;2023-05-03T03:02:26;101021.78;;;19.53;77.46
61026;BME280;46911;32.650;-16.902;2023-05-03T03:04:27;101023.16;;;19.57;77.47
61026;BME280;46911;32.650;-16.902;2023-05-03T03:06:30;101010.13;;;19.52;76.37
61026;BME280;46911;32.650;-16.902;2023-05-03T03:08:32;100983.13;;;19.43;75.84
61026;BME280;46911;32.650;-16.902;2023-05-03T03:10:36;101034.91;;;19.66;76.23
61026;BME280;46911;32.650;-16.902;2023-05-03T03:12:38;101040.09;;;19.59;76.68
61026;BME280;46911;32.650;-16.902;2023-05-03T03:14:45;101042.41;;;19.54;77.52
61026;BME280;46911;32.650;-16.902;2023-05-03T03:16:50;101044.41;;;19.52;77.96
61026;BME280;46911;32.650;-16.902;2023-05-03T03:18:54;101049.44;;;19.47;77.82
61026;BME280;46911;32.650;-16.902;2023-05-03T03:20:57;101019.22;;;19.33;78.64
61026;BME280;46911;32.650;-16.902;2023-05-03T03:23:01;101031.91;;;19.33;79.11
61026;BME280;46911;32.650;-16.902;2023-05-03T03:25:06;101025.50;;;19.34;79.29
61026;BME280;46911;32.650;-16.902;2023-05-03T03:27:12;101020.31;;;19.40;78.84
61026;BME280;46911;32.650;-16.902;2023-05-03T03:29:13;101026.88;;;19.38;79.37
61026;BME280;46911;32.650;-16.902;2023-05-03T03:31:17;101029.28;;;19.41;79.06
61026;BME280;46911;32.650;-16.902;2023-05-03T03:33:21;101039.00;;;19.52;79.08
61026;BME280;46911;32.650;-16.902;2023-05-03T03:35:29;101027.94;;;19.45;78.84
61026;BME280;46911;32.650;-16.902;2023-05-03T03:37:30;101042.50;;;19.44;79.49
61026;BME280;46911;32.650;-16.902;2023-05-03T03:39:34;101047.84;;;19.54;79.00
61026;BME280;46911;32.650;-16.902;2023-05-03T03:41:36;101029.75;;;19.36;79.60
61026;BME280;46911;32.650;-16.902;2023-05-03T03:43:37;101053.16;;;19.46;79.62
61026;BME280;46911;32.650;-16.902;2023-05-03T03:45:43;101049.59;;;19.45;80.05
61026;BME280;46911;32.650;-16.902;2023-05-03T03:47:47;101028.81;;;19.28;80.34
61026;BME280;46911;32.650;-16.902;2023-05-03T03:49:52;101032.22;;;19.30;80.55
61026;BME280;46911;32.650;-16.902;2023-05-03T03:51:55;101042.13;;;19.39;80.75
61026;BME280;46911;32.650;-16.902;2023-05-03T03:53:59;101025.78;;;19.31;81.00
61026;BME280;46911;32.650;-16.902;2023-05-03T03:56:07;101052.78;;;19.40;81.08
61026;BME280;46911;32.650;-16.902;2023-05-03T03:58:08;101040.19;;;19.31;80.96
61026;BME280;46911;32.650;-16.902;2023-05-03T04:00:12;101032.22;;;19.30;81.20
61026;BME280;46911;32.650;-16.902;2023-05-03T04:02:21;101051.38;;;19.36;81.45
61026;BME280;46911;32.650;-16.902;2023-05-03T04:04:22;101059.19;;;19.39;81.66
61026;BME280;46911;32.650;-16.902;2023-05-03T04:06:27;101064.66;;;19.48;81.92
61026;BME280;46911;32.650;-16.902;2023-05-03T04:08:32;101051.53;;;19.35;82.01
61026;BME280;46911;32.650;-16.902;2023-05-03T04:10:33;101065.97;;;19.44;82.68
61026;BME280;46911;32.650;-16.902;2023-05-03T04:12:36;101067.53;;;19.46;81.38
61026;BME280;46911;32.650;-16.902;2023-05-03T04:14:38;101069.16;;;19.39;80.90
61026;BME280;46911;32.650;-16.902;2023-05-03T04:16:42;101047.50;;;19.21;80.90
61026;BME280;46911;32.650;-16.902;2023-05-03T04:18:43;101064.28;;;19.24;79.06
61026;BME280;46911;32.650;-16.902;2023-05-03T04:20:44;101047.91;;;19.26;76.93
61026;BME280;46911;32.650;-16.902;2023-05-03T04:22:49;101045.09;;;19.18;76.88
61026;BME280;46911;32.650;-16.902;2023-05-03T04:24:52;101082.56;;;19.31;76.52
61026;BME280;46911;32.650;-16.902;2023-05-03T04:26:54;101060.69;;;19.24;76.23
61026;BME280;46911;32.650;-16.902;2023-05-03T04:29:02;101072.38;;;19.43;75.52
61026;BME280;46911;32.650;-16.902;2023-05-03T04:31:06;101062.50;;;19.33;75.27
61026;BME280;46911;32.650;-16.902;2023-05-03T04:33:10;101053.69;;;19.31;74.84
61026;BME280;46911;32.650;-16.902;2023-05-03T04:35:12;101068.47;;;19.37;74.39
61026;BME280;46911;32.650;-16.902;2023-05-03T04:37:17;101083.22;;;19.43;74.49
61026;BME280;46911;32.650;-16.902;2023-05-03T04:39:26;101077.81;;;19.43;74.54
61026;BME280;46911;32.650;-16.902;2023-05-03T04:41:31;101088.09;;;19.39;74.80
61026;BME280;46911;32.650;-16.902;2023-05-03T04:43:35;101068.28;;;19.20;74.76
61026;BME280;46911;32.650;-16.902;2023-05-03T04:45:36;101088.16;;;19.29;74.94
61026;BME280;46911;32.650;-16.902;2023-05-03T04:47:41;101089.03;;;19.30;75.04
61026;BME280;46911;32.650;-16.902;2023-05-03T04:49:43;101068.13;;;19.22;73.71
61026;BME280;46911;32.650;-16.902;2023-05-03T04:51:44;101078.03;;;19.31;73.38
61026;BME280;46911;32.650;-16.902;2023-05-03T04:53:47;101090.09;;;19.37;73.41
61026;BME280;46911;32.650;-16.902;2023-05-03T04:55:52;101082.44;;;19.32;73.77
61026;BME280;46911;32.650;-16.902;2023-05-03T04:57:54;101085.00;;;19.34;73.52
61026;BME280;46911;32.650;-16.902;2023-05-03T04:59:55;101081.31;;;19.35;72.35
61026;BME280;46911;32.650;-16.902;2023-05-03T05:01:57;101092.59;;;19.48;72.30
61026;BME280;46911;32.650;-16.902;2023-05-03T05:03:58;101045.94;;;19.18;72.00
61026;BME280;46911;32.650;-16.902;2023-05-03T05:06:07;101095.19;;;19.40;72.59
61026;BME280;46911;32.650;-16.902;2023-05-03T05:08:12;101076.66;;;19.27;71.97
61026;BME280;46911;32.650;-16.902;2023-05-03T05:10:22;101108.63;;;19.32;72.64
61026;BME280;46911;32.650;-16.902;2023-05-03T05:12:26;101082.97;;;19.18;72.07
61026;BME280;46911;32.650;-16.902;2023-05-03T05:14:29;101082.97;;;19.18;72.07
61026;BME280;46911;32.650;-16.902;2023-05-03T05:16:33;101105.41;;;19.28;71.67
61026;BME280;46911;32.650;-16.902;2023-05-03T05:18:40;101110.34;;;19.33;71.64
61026;BME280;46911;32.650;-16.902;2023-05-03T05:20:43;101113.81;;;19.25;71.61
61026;BME280;46911;32.650;-16.902;2023-05-03T05:22:51;101108.38;;;19.25;72.34
61026;BME280;46911;32.650;-16.902;2023-05-03T05:24:52;101085.19;;;19.04;72.45
61026;BME280;46911;32.650;-16.902;2023-05-03T05:26:55;101104.66;;;19.08;72.78
61026;BME280;46911;32.650;-16.902;2023-05-03T05:29:00;101098.34;;;18.89;73.05
61026;BME280;46911;32.650;-16.902;2023-05-03T05:31:01;101102.75;;;18.81;73.53
61026;BME280;46911;32.650;-16.902;2023-05-03T05:33:04;101118.28;;;18.88;74.27
61026;BME280;46911;32.650;-16.902;2023-05-03T05:35:05;101114.66;;;18.88;74.13
61026;BME280;46911;32.650;-16.902;2023-05-03T05:37:06;101099.66;;;18.76;74.56
61026;BME280;46911;32.650;-16.902;2023-05-03T05:39:07;101124.06;;;18.84;74.55
61026;BME280;46911;32.650;-16.902;2023-05-03T05:41:09;101128.63;;;18.83;74.76
61026;BME280;46911;32.650;-16.902;2023-05-03T05:43:14;101112.63;;;18.72;74.48
61026;BME280;46911;32.650;-16.902;2023-05-03T05:45:20;101112.31;;;18.75;74.61
61026;BME280;46911;32.650;-16.902;2023-05-03T05:47:21;101100.53;;;18.66;74.53
61026;BME280;46911;32.650;-16.902;2023-05-03T05:49:29;101134.63;;;18.77;74.81
61026;BME280;46911;32.650;-16.902;2023-05-03T05:51:32;101126.88;;;18.64;74.88
61026;BME280;46911;32.650;-16.902;2023-05-03T05:53:39;101125.31;;;18.62;74.74
61026;BME280;46911;32.650;-16.902;2023-05-03T05:55:41;101138.66;;;18.63;74.97
61026;BME280;46911;32.650;-16.902;2023-05-03T05:57:46;101136.53;;;18.57;73.91
61026;BME280;46911;32.650;-16.902;2023-05-03T05:59:49;101098.38;;;18.32;73.59
61026;BME280;46911;32.650;-16.902;2023-05-03T06:01:52;101131.16;;;18.47;72.83
61026;BME280;46911;32.650;-16.902;2023-05-03T06:03:54;101153.31;;;18.61;72.87
61026;BME280;46911;32.650;-16.902;2023-05-03T06:05:56;101117.25;;;18.42;72.42
61026;BME280;46911;32.650;-16.902;2023-05-03T06:08:00;101139.97;;;18.59;70.14
61026;BME280;46911;32.650;-16.902;2023-05-03T06:10:02;101150.31;;;18.73;70.06
61026;BME280;46911;32.650;-16.902;2023-05-03T06:12:06;101155.81;;;18.82;68.82
61026;BME280;46911;32.650;-16.902;2023-05-03T06:14:12;101136.94;;;18.72;68.03
61026;BME280;46911;32.650;-16.902;2023-05-03T06:16:17;101168.72;;;18.88;67.91
61026;BME280;46911;32.650;-16.902;2023-05-03T06:18:18;101158.94;;;18.87;67.55
61026;BME280;46911;32.650;-16.902;2023-05-03T06:20:21;101169.63;;;18.88;67.65
61026;BME280;46911;32.650;-16.902;2023-05-03T06:22:26;101149.59;;;18.71;67.87
61026;BME280;46911;32.650;-16.902;2023-05-03T06:24:30;101154.00;;;18.72;67.56
61026;BME280;46911;32.650;-16.902;2023-05-03T06:26:33;101176.03;;;18.78;67.88
61026;BME280;46911;32.650;-16.902;2023-05-03T06:28:36;101160.09;;;18.74;67.19
61026;BME280;46911;32.650;-16.902;2023-05-03T06:30:49;101178.72;;;18.78;67.49
61026;BME280;46911;32.650;-16.902;2023-05-03T06:32:52;101173.47;;;18.76;67.41
61026;BME280;46911;32.650;-16.902;2023-05-03T06:34:56;101177.75;;;18.79;67.04
61026;BME280;46911;32.650;-16.902;2023-05-03T06:37:04;101185.09;;;18.86;67.02
61026;BME280;46911;32.650;-16.902;2023-05-03T06:39:06;101172.19;;;18.70;67.19
61026;BME280;46911;32.650;-16.902;2023-05-03T06:41:07;101189.66;;;18.86;67.20
61026;BME280;46911;32.650;-16.902;2023-05-03T06:43:08;101199.75;;;18.84;68.11
61026;BME280;46911;32.650;-16.902;2023-05-03T06:45:17;101202.44;;;18.84;68.17
61026;BME280;46911;32.650;-16.902;2023-05-03T06:47:20;101199.91;;;18.82;68.29
61026;BME280;46911;32.650;-16.902;2023-05-03T06:49:21;101209.25;;;18.88;68.43
61026;BME280;46911;32.650;-16.902;2023-05-03T06:51:26;101200.78;;;18.83;68.66
61026;BME280;46911;32.650;-16.902;2023-05-03T06:53:31;101192.41;;;18.76;68.54
61026;BME280;46911;32.650;-16.902;2023-05-03T06:55:37;101202.34;;;18.85;68.81
61026;BME280;46911;32.650;-16.902;2023-05-03T06:57:40;101217.81;;;18.93;68.78
61026;BME280;46911;32.650;-16.902;2023-05-03T06:59:42;101205.88;;;18.86;68.46
61026;BME280;46911;32.650;-16.902;2023-05-03T07:01:43;101216.16;;;18.92;68.62
61026;BME280;46911;32.650;-16.902;2023-05-03T07:03:44;101217.81;;;18.93;68.92
61026;BME280;46911;32.650;-16.902;2023-05-03T07:05:44;101226.19;;;19.00;68.79
61026;BME280;46911;32.650;-16.902;2023-05-03T07:07:46;101240.25;;;19.13;68.81
61026;BME280;46911;32.650;-16.902;2023-05-03T07:09:49;101228.84;;;19.19;69.07
61026;BME280;46911;32.650;-16.902;2023-05-03T07:11:50;101226.13;;;19.19;68.96
61026;BME280;46911;32.650;-16.902;2023-05-03T07:13:54;101251.56;;;19.36;69.13
61026;BME280;46911;32.650;-16.902;2023-05-03T07:15:56;101220.09;;;19.35;68.05
61026;BME280;46911;32.650;-16.902;2023-05-03T07:17:56;101212.06;;;19.44;67.24
61026;BME280;46911;32.650;-16.902;2023-05-03T07:19:57;101234.94;;;19.59;67.09
61026;BME280;46911;32.650;-16.902;2023-05-03T07:21:58;101241.84;;;19.71;67.25
61026;BME280;46911;32.650;-16.902;2023-05-03T07:24:05;101226.75;;;19.69;66.70
61026;BME280;46911;32.650;-16.902;2023-05-03T07:26:11;101247.44;;;19.88;66.77
61026;BME280;46911;32.650;-16.902;2023-05-03T07:28:15;101246.53;;;19.97;66.01
61026;BME280;46911;32.650;-16.902;2023-05-03T07:30:19;101251.34;;;20.03;65.26
61026;BME280;46911;32.650;-16.902;2023-05-03T07:32:20;101244.38;;;20.01;65.18
61026;BME280;46911;32.650;-16.902;2023-05-03T07:34:24;101233.25;;;20.04;64.51
61026;BME280;46911;32.650;-16.902;2023-05-03T07:36:28;101248.13;;;20.18;64.10
61026;BME280;46911;32.650;-16.902;2023-05-03T07:38:29;101256.00;;;20.29;62.61
61026;BME280;46911;32.650;-16.902;2023-05-03T07:40:30;101243.94;;;20.23;61.98
61026;BME280;46911;32.650;-16.902;2023-05-03T07:42:32;101256.78;;;20.39;62.10
61026;BME280;46911;32.650;-16.902;2023-05-03T07:44:36;101246.38;;;20.35;61.97
61026;BME280;46911;32.650;-16.902;2023-05-03T07:46:39;101261.81;;;20.52;62.34
61026;BME280;46911;32.650;-16.902;2023-05-03T07:48:40;101234.94;;;20.41;62.27
61026;BME280;46911;32.650;-16.902;2023-05-03T07:50:41;101256.75;;;20.57;62.31
61026;BME280;46911;32.650;-16.902;2023-05-03T07:52:46;101223.88;;;20.34;62.96
61026;BME280;46911;32.650;-16.902;2023-05-03T07:54:51;101263.25;;;20.65;62.23
61026;BME280;46911;32.650;-16.902;2023-05-03T07:56:52;101270.78;;;20.71;62.29
61026;BME280;46911;32.650;-16.902;2023-05-03T07:58:53;101273.19;;;20.74;61.65
61026;BME280;46911;32.650;-16.902;2023-05-03T08:00:54;101266.06;;;20.73;61.92
61026;BME280;46911;32.650;-16.902;2023-05-03T08:02:58;101262.50;;;20.72;62.15
61026;BME280;46911;32.650;-16.902;2023-05-03T08:05:01;101266.00;;;20.91;62.71
61026;BME280;46911;32.650;-16.902;2023-05-03T08:07:08;101271.28;;;20.93;62.11
61026;BME280;46911;32.650;-16.902;2023-05-03T08:09:09;101276.81;;;21.09;61.72
61026;BME280;46911;32.650;-16.902;2023-05-03T08:11:13;101257.88;;;21.17;61.57
61026;BME280;46911;32.650;-16.902;2023-05-03T08:13:14;101282.22;;;21.35;61.70
61026;BME280;46911;32.650;-16.902;2023-05-03T08:15:17;101267.31;;;21.39;60.74
61026;BME280;46911;32.650;-16.902;2023-05-03T08:17:21;101284.41;;;21.58;62.22
61026;BME280;46911;32.650;-16.902;2023-05-03T08:19:22;101273.75;;;21.38;63.52
61026;BME280;46911;32.650;-16.902;2023-05-03T08:21:23;101297.81;;;21.33;64.03
61026;BME280;46911;32.650;-16.902;2023-05-03T08:23:26;101301.56;;;21.40;63.71
61026;BME280;46911;32.650;-16.902;2023-05-03T08:25:27;101297.47;;;21.36;62.83
61026;BME280;46911;32.650;-16.902;2023-05-03T08:27:34;101305.94;;;21.33;63.58
61026;BME280;46911;32.650;-16.902;2023-05-03T08:29:39;101308.50;;;21.35;63.76
61026;BME280;46911;32.650;-16.902;2023-05-03T08:31:39;101305.63;;;21.36;63.63
61026;BME280;46911;32.650;-16.902;2023-05-03T08:33:42;101292.88;;;21.29;64.37
61026;BME280;46911;32.650;-16.902;2023-05-03T08:35:46;101304.94;;;21.34;63.46
61026;BME280;46911;32.650;-16.902;2023-05-03T08:37:49;101295.09;;;21.33;63.39
61026;BME280;46911;32.650;-16.902;2023-05-03T08:39:50;101305.59;;;21.54;62.72
61026;BME280;46911;32.650;-16.902;2023-05-03T08:41:54;101305.09;;;21.59;61.73
61026;BME280;46911;32.650;-16.902;2023-05-03T08:43:56;101293.44;;;21.67;59.28
61026;BME280;46911;32.650;-16.902;2023-05-03T08:45:58;101319.03;;;22.07;56.91
61026;BME280;46911;32.650;-16.902;2023-05-03T08:47:59;101312.97;;;22.30;55.80
61026;BME280;46911;32.650;-16.902;2023-05-03T08:50:05;101306.06;;;22.44;54.29
61026;BME280;46911;32.650;-16.902;2023-05-03T08:52:08;101322.03;;;22.63;57.47
61026;BME280;46911;32.650;-16.902;2023-05-03T08:54:16;101323.22;;;23.02;58.09
61026;BME280;46911;32.650;-16.902;2023-05-03T08:56:31;101334.28;;;23.33;58.47
61026;BME280;46911;32.650;-16.902;2023-05-03T08:58:36;101315.69;;;23.37;58.16
61026;BME280;46911;32.650;-16.902;2023-05-03T09:00:41;101327.25;;;23.47;58.28
61026;BME280;46911;32.650;-16.902;2023-05-03T09:02:44;101317.88;;;23.50;58.47
61026;BME280;46911;32.650;-16.902;2023-05-03T09:04:49;101320.97;;;23.86;56.65
61026;BME280;46911;32.650;-16.902;2023-05-03T09:07:06;101318.84;;;24.13;55.71
61026;BME280;46911;32.650;-16.902;2023-05-03T09:09:07;101317.34;;;24.02;54.87
61026;BME280;46911;32.650;-16.902;2023-05-03T09:11:19;101333.69;;;24.65;52.07
61026;BME280;46911;32.650;-16.902;2023-05-03T09:13:24;101336.56;;;24.64;52.43
61026;BME280;46911;32.650;-16.902;2023-05-03T09:15:34;101313.75;;;24.80;49.84
61026;BME280;46911;32.650;-16.902;2023-05-03T09:17:38;101318.13;;;24.89;50.48
61026;BME280;46911;32.650;-16.902;2023-05-03T09:19:53;101326.31;;;25.42;50.43
61026;BME280;46911;32.650;-16.902;2023-05-03T09:22:05;101317.66;;;25.53;48.59
61026;BME280;46911;32.650;-16.902;2023-05-03T09:24:18;101338.44;;;24.09;52.29
61026;BME280;46911;32.650;-16.902;2023-05-03T09:26:28;101342.59;;;23.40;55.94
61026;BME280;46911;32.650;-16.902;2023-05-03T09:28:41;101346.13;;;24.05;53.67
61026;BME280;46911;32.650;-16.902;2023-05-03T09:30:49;101336.34;;;24.42;53.26
61026;BME280;46911;32.650;-16.902;2023-05-03T09:33:06;101346.78;;;24.07;54.49
61026;BME280;46911;32.650;-16.902;2023-05-03T09:35:13;101349.56;;;23.26;56.20
61026;BME280;46911;32.650;-16.902;2023-05-03T09:37:14;101337.66;;;23.27;56.72
61026;BME280;46911;32.650;-16.902;2023-05-03T09:39:16;101355.03;;;23.10;56.91
61026;BME280;46911;32.650;-16.902;2023-05-03T09:41:27;101356.06;;;23.33;56.34
61026;BME280;46911;32.650;-16.902;2023-05-03T09:43:31;101357.56;;;23.44;55.89
61026;BME280;46911;32.650;-16.902;2023-05-03T09:45:34;101346.56;;;23.69;55.73
61026;BME280;46911;32.650;-16.902;2023-05-03T09:47:48;101361.25;;;23.51;56.70
61026;BME280;46911;32.650;-16.902;2023-05-03T09:49:50;101353.00;;;23.12;57.92
61026;BME280;46911;32.650;-16.902;2023-05-03T09:51:54;101331.41;;;23.18;58.70
61026;BME280;46911;32.650;-16.902;2023-05-03T09:53:55;101341.25;;;23.19;59.38
61026;BME280;46911;32.650;-16.902;2023-05-03T09:55:58;101340.31;;;23.60;57.82
61026;BME280;46911;32.650;-16.902;2023-05-03T09:58:02;101328.16;;;23.06;58.10
61026;BME280;46911;32.650;-16.902;2023-05-03T10:00:07;101336.84;;;22.94;59.79
61026;BME280;46911;32.650;-16.902;2023-05-03T10:02:12;101346.69;;;22.95;60.47
61026;BME280;46911;32.650;-16.902;2023-05-03T10:04:17;101359.75;;;23.40;59.12
61026;BME280;46911;32.650;-16.902;2023-05-03T10:06:36;101359.09;;;24.03;56.46
61026;BME280;46911;32.650;-16.902;2023-05-03T10:08:45;101366.69;;;24.70;55.31
61026;BME280;46911;32.650;-16.902;2023-05-03T10:10:52;101360.50;;;25.00;54.81
61026;BME280;46911;32.650;-16.902;2023-05-03T10:12:53;101365.13;;;24.99;53.71
61026;BME280;46911;32.650;-16.902;2023-05-03T10:14:56;101375.72;;;25.32;53.21
61026;BME280;46911;32.650;-16.902;2023-05-03T10:17:07;101360.38;;;25.31;52.68
61026;BME280;46911;32.650;-16.902;2023-05-03T10:21:32;101368.75;;;25.30;53.02
61026;BME280;46911;32.650;-16.902;2023-05-03T10:24:18;101368.34;;;25.03;52.57
61026;BME280;46911;32.650;-16.902;2023-05-03T10:26:20;101372.69;;;25.80;49.55
61026;BME280;46911;32.650;-16.902;2023-05-03T10:28:25;101351.63;;;26.11;48.21
61026;BME280;46911;32.650;-16.902;2023-05-03T10:30:29;101366.06;;;26.19;48.13
61026;BME280;46911;32.650;-16.902;2023-05-03T10:32:37;101358.41;;;26.51;46.41
61026;BME280;46911;32.650;-16.902;2023-05-03T10:34:42;101377.00;;;26.19;46.39
61026;BME280;46911;32.650;-16.902;2023-05-03T10:36:46;101375.91;;;26.35;45.59
61026;BME280;46911;32.650;-16.902;2023-05-03T10:38:47;101363.28;;;26.56;45.50
61026;BME280;46911;32.650;-16.902;2023-05-03T10:40:48;101373.41;;;26.99;43.82
61026;BME280;46911;32.650;-16.902;2023-05-03T10:42:55;101357.25;;;26.61;42.37